Malvern, Pennsylvania
Current Conditions -  °F | °C
As of 10:54 AM on Saturday 25 Oct 2014 (Local Time) from KPTW Reporting Station
Clear Clear  
Wind Chill: 60°   Ceiling: Unl
Heat Index: 60°   Visibility: 10mi
Dew Point: 41°   Wind: 9mph
Humidity: 49%   Direction: 300°WNW
Pressure: 29.9"   Gusts: NA
Location:  40.04°N, 75.51°W
Report Text: KPTW 251454Z AUTO 30008KT 10SM CLR 16/05 A2990 RMK AO2 SLP121 T01560050 58011
Loading
Personal Weather Stations






























Interactive Weather Map
Tropical Storm Tracking
New forecast layout! Learn more

10-Day Weather Forecast

Advertisements
Track Severe Weather on mobile